createdAt,value
2022-08-22T00:01:14.738Z,99542.44
2022-08-22T00:03:10.808Z,99504.81
2022-08-22T00:04:00.768Z,99542.63
2022-08-22T00:06:45.792Z,99536.53
2022-08-22T00:09:29.292Z,99542.25
2022-08-22T00:12:06.239Z,99541.19
2022-08-22T00:15:02.137Z,99544.03
2022-08-22T00:17:52.730Z,99546.53
2022-08-22T00:20:35.688Z,99536.50
2022-08-22T00:23:18.033Z,99537.16
2022-08-22T00:25:53.225Z,99532.69
2022-08-22T00:28:28.189Z,99540.00
2022-08-22T00:31:02.829Z,99531.78
2022-08-22T00:33:41.611Z,99540.38
2022-08-22T00:36:37.902Z,99522.28
2022-08-22T00:39:26.354Z,99527.88
2022-08-22T00:42:01.961Z,99540.94
2022-08-22T00:44:58.407Z,99540.16
2022-08-22T00:47:31.236Z,99532.47
2022-08-22T00:50:25.039Z,99521.47
2022-08-22T00:53:04.315Z,99527.72
2022-08-22T00:56:02.828Z,99524.28
2022-08-22T00:58:58.079Z,99519.59
2022-08-22T01:01:38.513Z,99520.13
2022-08-22T01:04:29.765Z,99520.69
2022-08-22T01:07:13.984Z,99520.06
2022-08-22T01:10:01.122Z,99513.72
2022-08-22T01:12:47.533Z,99517.41
2022-08-22T01:15:22.496Z,99508.53
2022-08-22T01:17:59.920Z,99514.72
2022-08-22T01:21:01.803Z,99510.28
2022-08-22T01:24:05.213Z,99511.44
2022-08-22T01:26:59.240Z,99513.56
2022-08-22T01:29:51.713Z,99509.72
2022-08-22T01:33:05.456Z,99518.19
2022-08-22T01:35:49.418Z,99507.69
2022-08-22T01:38:35.701Z,99502.69
2022-08-22T01:41:31.767Z,99500.69
2022-08-22T01:44:07.246Z,99508.06
2022-08-22T01:46:47.269Z,99502.88
2022-08-22T01:49:34.896Z,99505.28
2022-08-22T01:52:36.742Z,99500.44
2022-08-22T01:55:24.597Z,99500.44
2022-08-22T01:58:01.141Z,99495.72
2022-08-22T02:00:47.196Z,99500.72
2022-08-22T02:03:25.112Z,99504.34
2022-08-22T02:06:01.125Z,99501.81
2022-08-22T02:08:46.384Z,99504.66
2022-08-22T02:11:33.446Z,99502.16
2022-08-22T02:14:36.602Z,99502.50
2022-08-22T02:17:17.561Z,99501.88
2022-08-22T02:19:57.194Z,99498.06
2022-08-22T02:22:37.881Z,99503.94
2022-08-22T02:25:21.344Z,99498.56
2022-08-22T02:28:08.441Z,99500.72
2022-08-22T02:30:49.807Z,99498.88
2022-08-22T02:33:29.023Z,99500.91
2022-08-22T02:36:02.551Z,99500.41
2022-08-22T02:38:48.925Z,99503.63
2022-08-22T02:41:40.898Z,99501.44
2022-08-22T02:44:20.518Z,99498.56
2022-08-22T02:46:55.449Z,99504.78
2022-08-22T02:49:30.882Z,99490.06
2022-08-22T02:52:07.032Z,99502.09
2022-08-22T02:54:45.660Z,99498.28
2022-08-22T02:57:22.620Z,99490.94
2022-08-22T03:00:01.033Z,99492.63
2022-08-22T03:03:02.873Z,99494.78
2022-08-22T03:05:38.378Z,99497.47
2022-08-22T03:08:12.971Z,99495.13
2022-08-22T03:10:47.342Z,99491.78
2022-08-22T03:13:26.088Z,99493.28
2022-08-22T03:15:58.470Z,99490.28
2022-08-22T03:18:44.908Z,99492.28
2022-08-22T03:21:56.728Z,99489.94
2022-08-22T03:24:42.213Z,99490.28
2022-08-22T03:27:32.140Z,99485.94
2022-08-22T03:30:10.533Z,99484.25
2022-08-22T03:32:52.641Z,99481.75
2022-08-22T03:35:32.323Z,99482.09
2022-08-22T03:38:20.061Z,99489.59
2022-08-22T03:41:05.309Z,99484.44
2022-08-22T03:43:52.193Z,99483.28
2022-08-22T03:46:33.894Z,99475.44
2022-08-22T03:49:25.182Z,99475.44
2022-08-22T03:52:10.306Z,99473.94
2022-08-22T03:54:55.021Z,99477.28
2022-08-22T03:57:24.385Z,99475.09
2022-08-22T04:00:18.429Z,99481.13
2022-08-22T04:03:23.942Z,99475.25
2022-08-22T04:06:35.339Z,99481.13
2022-08-22T04:09:26.458Z,99476.75
2022-08-22T04:12:38.072Z,99479.78
2022-08-22T04:15:19.927Z,99488.25
2022-08-22T04:18:00.925Z,99490.97
2022-08-22T04:20:44.933Z,99483.78
2022-08-22T04:23:32.873Z,99492.94
2022-08-22T04:26:12.413Z,99487.13
2022-08-22T04:28:45.416Z,99492.78
2022-08-22T04:31:14.507Z,99489.28
2022-08-22T04:33:50.757Z,99490.09
2022-08-22T04:36:31.065Z,99488.94
2022-08-22T04:39:25.278Z,99491.75
2022-08-22T04:42:11.151Z,99499.78
2022-08-22T04:44:56.107Z,99486.25
2022-08-22T04:47:54.325Z,99492.59
2022-08-22T04:50:39.979Z,99496.28
2022-08-22T04:53:30.902Z,99493.09
2022-08-22T04:56:15.353Z,99497.94
2022-08-22T04:58:55.611Z,99490.97
2022-08-22T05:01:53.619Z,99493.78
2022-08-22T05:04:43.694Z,99493.28
2022-08-22T05:07:15.764Z,99500.94
2022-08-22T05:09:46.794Z,99489.78
2022-08-22T05:12:20.348Z,99501.28
2022-08-22T05:15:01.357Z,99499.78
2022-08-22T05:17:31.717Z,99498.13
2022-08-22T05:20:03.852Z,99497.25
2022-08-22T05:22:36.496Z,99495.94
2022-08-22T05:25:09.428Z,99500.75
2022-08-22T05:27:40.600Z,99498.59
2022-08-22T05:30:09.770Z,99495.22
2022-08-22T05:32:49.690Z,99490.72
2022-08-22T05:35:19.769Z,99501.06
2022-08-22T05:37:49.901Z,99501.28
2022-08-22T05:40:21.814Z,99498.41
2022-08-22T05:42:48.902Z,99508.94
2022-08-22T05:45:18.185Z,99509.66
2022-08-22T05:47:55.738Z,99511.81
2022-08-22T05:50:50.831Z,99509.63
2022-08-22T05:53:26.490Z,99510.00
2022-08-22T05:56:22.341Z,99513.81
2022-08-22T05:59:00.119Z,99519.66
2022-08-22T06:01:33.919Z,99509.47
2022-08-22T06:04:20.956Z,99509.81
2022-08-22T06:06:56.858Z,99512.50
2022-08-22T06:09:38.670Z,99507.31
2022-08-22T06:12:21.263Z,99510.81
2022-08-22T06:14:54.793Z,99509.66
2022-08-22T06:17:34.617Z,99514.31
2022-08-22T06:20:02.370Z,99523.66
2022-08-22T06:22:34.999Z,99522.00
2022-08-22T06:25:12.700Z,99521.84
2022-08-22T06:27:39.514Z,99524.69
2022-08-22T06:30:07.794Z,99528.31
2022-08-22T06:32:58.746Z,99526.84
2022-08-22T06:35:59.464Z,99527.31
2022-08-22T06:38:34.659Z,99527.97
2022-08-22T06:41:06.716Z,99533.44
2022-08-22T06:43:43.534Z,99531.06
2022-08-22T06:46:12.150Z,99520.84
2022-08-22T06:48:38.909Z,99531.44
2022-08-22T06:51:08.210Z,99533.47
2022-08-22T06:53:42.371Z,99539.28
2022-08-22T06:56:23.157Z,99534.94
2022-08-22T06:58:52.412Z,99541.75
2022-08-22T07:01:23.594Z,99547.66
2022-08-22T07:03:53.762Z,99540.06
2022-08-22T07:06:31.837Z,99550.34
2022-08-22T07:08:58.734Z,99547.88
2022-08-22T07:11:36.585Z,99545.00
2022-08-22T07:14:14.304Z,99545.00
2022-08-22T07:16:49.712Z,99549.34
2022-08-22T07:19:35.097Z,99538.94
2022-08-22T07:22:13.358Z,99535.13
2022-08-22T07:24:47.247Z,99552.34
2022-08-22T07:27:31.490Z,99545.34
2022-08-22T07:30:06.027Z,99549.59
2022-08-22T07:33:23.643Z,99543.91
2022-08-22T07:35:53.133Z,99549.66
2022-08-22T07:38:28.746Z,99537.38
2022-08-22T07:41:15.213Z,99541.19
2022-08-22T07:43:50.346Z,99535.34
2022-08-22T07:46:22.760Z,99541.00
2022-08-22T07:49:21.863Z,99545.31
2022-08-22T07:51:55.842Z,99540.72
2022-08-22T07:54:37.422Z,99543.75
2022-08-22T07:57:12.580Z,99540.69
2022-08-22T07:59:47.121Z,99541.34
2022-08-22T08:02:17.594Z,99539.31
2022-08-22T08:04:45.380Z,99538.66
2022-08-22T08:07:15.683Z,99533.38
2022-08-22T08:09:48.681Z,99540.28
2022-08-22T08:12:17.923Z,99540.19
2022-08-22T08:14:50.047Z,99537.66
2022-08-22T08:17:32.208Z,99535.63
2022-08-22T08:20:03.239Z,99534.16
2022-08-22T08:22:31.002Z,99531.84
2022-08-22T08:24:59.717Z,99535.09
2022-08-22T08:27:50.409Z,99537.41
2022-08-22T08:30:21.269Z,99538.69
2022-08-22T08:32:51.629Z,99539.41
2022-08-22T08:35:28.190Z,99541.41
2022-08-22T08:38:12.988Z,99540.88
2022-08-22T08:41:08.489Z,99543.94
2022-08-22T08:43:56.194Z,99534.03
2022-08-22T08:47:02.101Z,99525.56
2022-08-22T08:49:43.327Z,99520.41
2022-08-22T08:52:40.357Z,99524.63
2022-08-22T08:55:27.365Z,99526.59
2022-08-22T08:58:27.346Z,99524.22
2022-08-22T09:01:02.907Z,99522.06
2022-08-22T09:04:28.117Z,99524.84
2022-08-22T09:10:16.453Z,99506.72
2022-08-22T09:13:21.929Z,99508.44
2022-08-22T09:16:22.499Z,99509.91
2022-08-22T09:18:55.445Z,99503.72
2022-08-22T09:21:53.058Z,99495.63
2022-08-22T09:25:13.631Z,99496.22
2022-08-22T09:28:01.369Z,99482.31
2022-08-22T09:30:48.586Z,99478.50
2022-08-22T09:33:29.913Z,99479.50
2022-08-22T09:36:05.109Z,99476.78
2022-08-22T09:38:53.718Z,99477.97
2022-08-22T09:40:15.393Z,99521.63
2022-08-22T09:41:41.422Z,99475.03
2022-08-22T09:44:24.378Z,99464.16
2022-08-22T09:47:05.025Z,99467.41
2022-08-22T09:49:39.401Z,99464.06
2022-08-22T09:52:31.996Z,99451.06
2022-08-22T09:55:15.930Z,99450.47
2022-08-22T09:58:03.150Z,99449.28
2022-08-22T10:00:47.183Z,99442.66
2022-08-22T10:03:30.450Z,99457.22
2022-08-22T10:06:03.288Z,99446.41
2022-08-22T10:08:40.160Z,99435.88
2022-08-22T10:11:18.807Z,99441.25
2022-08-22T10:14:01.607Z,99439.41
2022-08-22T10:16:42.881Z,99436.81
2022-08-22T10:19:20.002Z,99443.72
2022-08-22T10:22:20.847Z,99429.53
2022-08-22T10:25:07.524Z,99424.53
2022-08-22T10:27:39.796Z,99423.53
2022-08-22T10:30:18.819Z,99427.78
2022-08-22T10:32:48.012Z,99422.66
2022-08-22T10:35:29.352Z,99419.13
2022-08-22T10:38:12.321Z,99413.19
2022-08-22T10:40:50.990Z,99418.25
2022-08-22T10:43:29.468Z,99415.53
2022-08-22T10:46:12.545Z,99420.66
2022-08-22T10:49:05.756Z,99410.34
2022-08-22T10:51:49.662Z,99414.91
2022-08-22T10:54:38.307Z,99412.13
2022-08-22T10:57:27.791Z,99411.00
2022-08-22T10:59:58.307Z,99408.56
2022-08-22T11:02:36.204Z,99399.84
2022-08-22T11:05:27.223Z,99406.81
2022-08-22T11:08:16.264Z,99409.16
2022-08-22T11:11:06.376Z,99404.03
2022-08-22T11:13:47.667Z,99405.13
2022-08-22T11:16:46.782Z,99401.53
2022-08-22T11:19:24.011Z,99387.91
2022-08-22T11:22:19.182Z,99403.94
2022-08-22T11:25:36.254Z,99392.19
2022-08-22T11:28:28.785Z,99391.97
2022-08-22T11:31:07.649Z,99384.06
2022-08-22T11:34:03.470Z,99381.56
2022-08-22T11:36:54.384Z,99395.09
2022-08-22T11:39:32.580Z,99383.34
2022-08-22T11:42:29.651Z,99383.56
2022-08-22T11:44:59.485Z,99382.28
2022-08-22T11:47:36.076Z,99386.72
2022-08-22T11:50:21.474Z,99386.56
2022-08-22T11:53:14.568Z,99383.00
2022-08-22T11:56:20.020Z,99376.94
2022-08-22T11:59:41.014Z,99382.66
2022-08-22T12:02:19.440Z,99380.44
2022-08-22T12:04:59.296Z,99371.63
2022-08-22T12:07:32.192Z,99368.63
2022-08-22T12:10:15.272Z,99370.59
2022-08-22T12:12:54.106Z,99369.19
2022-08-22T12:15:33.390Z,99360.16
2022-08-22T12:18:21.763Z,99363.41
2022-08-22T12:21:09.744Z,99363.81
2022-08-22T12:24:00.068Z,99356.97
2022-08-22T12:26:46.993Z,99363.56
2022-08-22T12:29:40.103Z,99354.72
2022-08-22T12:32:27.630Z,99346.81
2022-08-22T12:35:29.961Z,99350.84
2022-08-22T12:38:30.675Z,99341.94
2022-08-22T12:41:35.408Z,99332.03
2022-08-22T12:44:23.194Z,99332.13
2022-08-22T12:47:23.945Z,99338.06
2022-08-22T12:50:18.455Z,99329.50
2022-08-22T12:53:27.026Z,99337.22
2022-08-22T12:56:03.762Z,99329.63
2022-08-22T12:58:56.924Z,99323.13
2022-08-22T13:01:33.859Z,99322.94
2022-08-22T13:04:05.065Z,99321.53
2022-08-22T13:06:37.821Z,99312.38
2022-08-22T13:09:19.724Z,99316.44
2022-08-22T13:11:52.683Z,99315.84
2022-08-22T13:14:25.853Z,99303.91
2022-08-22T13:16:57.210Z,99306.94
2022-08-22T13:19:28.527Z,99306.63
2022-08-22T13:22:10.092Z,99304.31
2022-08-22T13:24:52.297Z,99308.69
2022-08-22T13:27:51.598Z,99311.94
2022-08-22T13:30:37.324Z,99310.25
2022-08-22T13:33:14.455Z,99307.16
2022-08-22T13:36:12.654Z,99306.47
2022-08-22T13:38:54.409Z,99300.34
2022-08-22T13:41:27.067Z,99300.88
2022-08-22T13:44:05.798Z,99308.81
2022-08-22T13:46:35.450Z,99300.06
2022-08-22T13:49:07.164Z,99304.00
2022-08-22T13:51:45.859Z,99295.59
2022-08-22T13:54:16.054Z,99296.50
2022-08-22T13:56:56.118Z,99292.13
2022-08-22T13:59:51.356Z,99289.31
2022-08-22T14:02:34.363Z,99289.47
2022-08-22T14:05:06.790Z,99293.75
2022-08-22T14:07:38.649Z,99288.03
2022-08-22T14:10:23.757Z,99284.75
2022-08-22T14:12:56.170Z,99292.84
2022-08-22T14:15:32.218Z,99292.34
2022-08-22T14:18:10.361Z,99290.09
2022-08-22T14:20:39.417Z,99285.44
2022-08-22T14:23:29.204Z,99282.94
2022-08-22T14:25:57.267Z,99287.38
2022-08-22T14:28:30.450Z,99288.31
2022-08-22T14:31:08.365Z,99288.44
2022-08-22T14:33:40.873Z,99283.88
2022-08-22T14:36:18.872Z,99282.22
2022-08-22T14:38:52.220Z,99286.13
2022-08-22T14:41:56.172Z,99277.56
2022-08-22T14:44:25.220Z,99283.00
2022-08-22T14:46:56.421Z,99277.50
2022-08-22T14:49:48.341Z,99270.31
2022-08-22T14:52:29.609Z,99267.25
2022-08-22T14:55:10.349Z,99266.09
2022-08-22T14:57:41.295Z,99260.56
2022-08-22T15:00:13.559Z,99268.00
2022-08-22T15:02:41.761Z,99249.22
2022-08-22T15:05:19.680Z,99263.16
2022-08-22T15:07:55.982Z,99257.94
2022-08-22T15:10:32.893Z,99261.97
2022-08-22T15:13:07.768Z,99253.25
2022-08-22T15:15:49.432Z,99252.78
2022-08-22T15:18:26.649Z,99244.53
2022-08-22T15:21:08.503Z,99248.28
2022-08-22T15:23:45.087Z,99247.13
2022-08-22T15:26:39.727Z,99252.19
2022-08-22T15:29:20.327Z,99243.97
2022-08-22T15:31:51.202Z,99240.91
2022-08-22T15:34:30.103Z,99244.56
2022-08-22T15:37:25.650Z,99236.81
2022-08-22T15:40:11.965Z,99240.22
2022-08-22T15:42:47.166Z,99232.78
2022-08-22T15:45:33.791Z,99235.41
2022-08-22T15:48:04.450Z,99235.41
2022-08-22T15:50:38.702Z,99230.22
2022-08-22T15:53:30.988Z,99226.94
2022-08-22T15:56:05.023Z,99224.69
2022-08-22T15:58:37.075Z,99225.16
2022-08-22T16:01:19.685Z,99223.50
2022-08-22T16:04:01.804Z,99222.09
2022-08-22T16:06:53.172Z,99221.50
2022-08-22T16:09:42.617Z,99225.75
2022-08-22T16:12:25.040Z,99221.88
2022-08-22T16:14:51.841Z,99215.00
2022-08-22T16:17:30.234Z,99226.69
2022-08-22T16:20:09.953Z,99223.97
2022-08-22T16:22:55.946Z,99231.50
2022-08-22T16:25:44.176Z,99226.09
2022-08-22T16:28:54.399Z,99224.19
2022-08-22T16:31:18.942Z,99213.13
2022-08-22T16:33:46.666Z,99221.13
2022-08-22T16:36:43.913Z,99216.91
2022-08-22T16:39:22.562Z,99222.53
2022-08-22T16:42:10.682Z,99220.91
2022-08-22T16:44:42.298Z,99222.19
2022-08-22T16:47:17.550Z,99218.66
2022-08-22T16:49:49.923Z,99217.22
2022-08-22T16:52:25.358Z,99217.47
2022-08-22T16:55:04.794Z,99218.53
2022-08-22T16:58:06.487Z,99209.81
2022-08-22T17:00:36.367Z,99216.88
2022-08-22T17:03:24.113Z,99226.31
2022-08-22T17:06:02.553Z,99224.66
2022-08-22T17:08:56.938Z,99226.78
2022-08-22T17:11:45.276Z,99224.31
2022-08-22T17:14:27.041Z,99227.50
2022-08-22T17:17:17.785Z,99223.38
2022-08-22T17:20:01.890Z,99226.53
2022-08-22T17:22:58.084Z,99233.03
2022-08-22T17:25:49.365Z,99227.47
2022-08-22T17:28:34.583Z,99230.66
2022-08-22T17:31:13.116Z,99226.75
2022-08-22T17:34:29.194Z,99237.00
2022-08-22T17:37:01.606Z,99235.81
2022-08-22T17:39:39.772Z,99239.00
2022-08-22T17:42:38.374Z,99242.16
2022-08-22T17:45:33.170Z,99241.22
2022-08-22T17:48:12.737Z,99237.56
2022-08-22T17:50:57.061Z,99241.31
2022-08-22T17:53:49.994Z,99255.28
2022-08-22T17:56:28.553Z,99248.66
2022-08-22T17:59:05.023Z,99246.19
2022-08-22T18:01:42.595Z,99250.19
2022-08-22T18:04:25.066Z,99244.63
2022-08-22T18:07:28.253Z,99244.28
2022-08-22T18:10:04.540Z,99250.38
2022-08-22T18:12:44.225Z,99253.19
2022-08-22T18:15:21.257Z,99252.81
2022-08-22T18:17:56.846Z,99245.38
2022-08-22T18:20:41.942Z,99244.19
2022-08-22T18:23:35.528Z,99253.81
2022-08-22T18:26:44.032Z,99253.44
2022-08-22T18:29:15.607Z,99256.00
2022-08-22T18:31:53.953Z,99254.78
2022-08-22T18:34:29.821Z,99253.16
2022-08-22T18:37:03.650Z,99252.56
2022-08-22T18:39:43.113Z,99263.22
2022-08-22T18:42:21.852Z,99260.75
2022-08-22T18:44:48.269Z,99263.66
2022-08-22T18:47:20.717Z,99259.75
2022-08-22T18:49:54.167Z,99259.81
2022-08-22T18:52:26.593Z,99267.09
2022-08-22T18:55:06.846Z,99268.00
2022-08-22T18:58:03.377Z,99262.00
2022-08-22T19:01:08.240Z,99263.09
2022-08-22T19:03:41.690Z,99268.88
2022-08-22T19:06:32.927Z,99264.31
2022-08-22T19:09:25.644Z,99263.25
2022-08-22T19:12:10.822Z,99266.56
2022-08-22T19:15:03.069Z,99271.13
2022-08-22T19:17:58.826Z,99276.16
2022-08-22T19:20:50.185Z,99277.03
2022-08-22T19:23:40.346Z,99274.19
2022-08-22T19:26:23.427Z,99280.84
2022-08-22T19:28:52.353Z,99289.22
2022-08-22T19:31:24.165Z,99287.56
2022-08-22T19:34:13.536Z,99284.09
2022-08-22T19:36:40.233Z,99292.00
2022-08-22T19:39:31.275Z,99295.75
2022-08-22T19:41:59.449Z,99291.28
2022-08-22T19:44:35.638Z,99286.69
2022-08-22T19:47:12.636Z,99296.69
2022-08-22T19:49:43.608Z,99292.28
2022-08-22T19:52:19.881Z,99291.06
2022-08-22T19:55:03.125Z,99296.72
2022-08-22T19:57:57.190Z,99295.41
2022-08-22T20:00:29.674Z,99299.59
2022-08-22T20:03:37.544Z,99289.28
2022-08-22T20:06:05.985Z,99297.59
2022-08-22T20:08:37.916Z,99304.50
2022-08-22T20:11:12.326Z,99301.19
2022-08-22T20:13:39.053Z,99307.38
2022-08-22T20:16:21.626Z,99303.53
2022-08-22T20:19:07.837Z,99300.38
2022-08-22T20:21:58.856Z,99296.72
2022-08-22T20:24:30.787Z,99305.22
2022-08-22T20:27:15.619Z,99300.44
2022-08-22T20:29:49.053Z,99305.66
2022-08-22T20:32:19.028Z,99301.72
2022-08-22T20:34:47.476Z,99297.59
2022-08-22T20:37:32.355Z,99295.31
2022-08-22T20:40:55.464Z,99305.06
2022-08-22T20:43:35.004Z,99296.13
2022-08-22T20:46:23.998Z,99299.69
2022-08-22T20:48:53.037Z,99299.44
2022-08-22T20:51:24.818Z,99301.09
2022-08-22T20:53:53.547Z,99307.97
2022-08-22T20:56:52.756Z,99299.91
2022-08-22T20:59:28.176Z,99309.47
2022-08-22T21:02:16.930Z,99298.06
2022-08-22T21:04:52.824Z,99302.66
2022-08-22T21:07:32.714Z,99304.28
2022-08-22T21:10:25.893Z,99301.00
2022-08-22T21:13:08.986Z,99305.16
2022-08-22T21:15:43.129Z,99304.50
2022-08-22T21:18:12.733Z,99314.06
2022-08-22T21:20:39.710Z,99309.72
2022-08-22T21:23:13.530Z,99311.81
2022-08-22T21:25:57.804Z,99315.13
2022-08-22T21:28:27.303Z,99311.22
2022-08-22T21:30:53.748Z,99303.31
2022-08-22T21:33:24.432Z,99310.56
2022-08-22T21:36:00.804Z,99313.06
2022-08-22T21:38:27.987Z,99305.22
2022-08-22T21:41:01.999Z,99311.84
2022-08-22T21:43:36.761Z,99308.75
2022-08-22T21:46:05.017Z,99311.06
2022-08-22T21:48:37.614Z,99311.91
2022-08-22T21:51:24.136Z,99316.47
2022-08-22T21:53:53.381Z,99315.84
2022-08-22T21:56:37.268Z,99318.56
2022-08-22T21:59:50.929Z,99320.22
2022-08-22T22:02:36.578Z,99326.88
2022-08-22T22:05:13.489Z,99328.53
2022-08-22T22:07:42.786Z,99335.56
2022-08-22T22:10:12.577Z,99337.22
2022-08-22T22:12:41.532Z,99340.56
2022-08-22T22:15:12.121Z,99341.78
2022-08-22T22:17:38.589Z,99334.72
2022-08-22T22:20:06.662Z,99347.16
2022-08-22T22:22:33.088Z,99356.28
2022-08-22T22:25:03.625Z,99345.72
2022-08-22T22:27:30.102Z,99352.97
2022-08-22T22:29:56.795Z,99353.16
2022-08-22T22:32:23.484Z,99359.59
2022-08-22T22:34:49.927Z,99361.88
2022-08-22T22:37:16.568Z,99361.47
2022-08-22T22:39:43.178Z,99361.06
2022-08-22T22:42:09.802Z,99361.25
2022-08-22T22:44:36.245Z,99356.91
2022-08-22T22:47:02.966Z,99365.38
2022-08-22T22:49:31.026Z,99358.78
2022-08-22T22:51:58.380Z,99360.00
2022-08-22T22:54:27.211Z,99371.84
2022-08-22T22:56:54.017Z,99369.31
2022-08-22T22:59:24.743Z,99370.38
2022-08-22T23:02:10.163Z,99381.97
2022-08-22T23:04:52.341Z,99385.31
2022-08-22T23:07:19.933Z,99377.41
2022-08-22T23:09:46.559Z,99377.41
2022-08-22T23:12:14.306Z,99376.16
2022-08-22T23:14:40.691Z,99381.97
2022-08-22T23:17:07.871Z,99390.22
2022-08-22T23:19:34.558Z,99393.13
2022-08-22T23:22:01.782Z,99402.66
2022-08-22T23:24:31.067Z,99395.44
2022-08-22T23:26:57.945Z,99394.78
2022-08-22T23:29:24.960Z,99400.97
2022-08-22T23:31:57.683Z,99408.84
2022-08-22T23:34:29.880Z,99402.00
2022-08-22T23:37:00.892Z,99397.66
2022-08-22T23:39:29.241Z,99404.06
2022-08-22T23:41:56.789Z,99393.47
2022-08-22T23:44:27.970Z,99400.03
2022-08-22T23:46:55.465Z,99395.69
2022-08-22T23:49:21.887Z,99394.28
2022-08-22T23:51:49.907Z,99400.09
2022-08-22T23:54:17.904Z,99411.19
2022-08-22T23:56:47.902Z,99409.13
2022-08-22T23:59:20.576Z,99406.25
